createdAt,value
2023-04-09T00:01:14.051Z,3.70
2023-04-09T00:03:42.940Z,3.70
2023-04-09T00:06:13.046Z,3.70
2023-04-09T00:08:42.035Z,4.70
2023-04-09T00:11:11.480Z,3.90
2023-04-09T00:13:40.897Z,3.80
2023-04-09T00:16:10.631Z,3.50
2023-04-09T00:18:39.865Z,4.40
2023-04-09T00:21:09.435Z,4.30
2023-04-09T00:23:38.662Z,4.30
2023-04-09T00:26:07.659Z,3.60
2023-04-09T00:28:37.046Z,3.50
2023-04-09T00:31:06.372Z,3.80
2023-04-09T00:33:35.503Z,3.70
2023-04-09T00:36:04.586Z,4.60
2023-04-09T00:38:33.742Z,4.50
2023-04-09T00:41:03.746Z,4.10
2023-04-09T00:43:33.203Z,3.70
2023-04-09T00:46:02.560Z,4.00
2023-04-09T00:48:31.576Z,4.10
2023-04-09T00:51:00.816Z,3.70
2023-04-09T00:53:29.728Z,4.00
2023-04-09T00:55:59.009Z,3.80
2023-04-09T00:58:27.998Z,4.30
2023-04-09T01:00:56.928Z,3.30
2023-04-09T01:03:26.176Z,3.20
2023-04-09T01:05:59.022Z,4.00
2023-04-09T01:08:37.678Z,3.40
2023-04-09T01:11:29.998Z,3.70
2023-04-09T01:14:46.170Z,3.20
2023-04-09T01:17:21.564Z,3.40
2023-04-09T01:20:06.044Z,4.30
2023-04-09T01:22:56.395Z,3.70
2023-04-09T01:26:00.166Z,5.00
2023-04-09T01:28:40.638Z,3.40
2023-04-09T01:31:18.908Z,3.40
2023-04-09T01:33:48.360Z,3.70
2023-04-09T01:36:17.940Z,3.50
2023-04-09T01:38:49.311Z,3.60
2023-04-09T01:41:24.197Z,3.70
2023-04-09T01:43:53.606Z,4.70
2023-04-09T01:46:23.541Z,3.80
2023-04-09T01:48:52.875Z,4.70
2023-04-09T01:51:22.205Z,3.80
2023-04-09T01:53:51.528Z,3.70
2023-04-09T01:56:21.674Z,3.90
2023-04-09T01:58:50.641Z,3.70
2023-04-09T02:01:19.627Z,3.30
2023-04-09T02:03:55.170Z,3.40
2023-04-09T02:06:42.012Z,3.50
2023-04-09T02:09:13.244Z,3.40
2023-04-09T02:11:43.653Z,4.80
2023-04-09T02:14:13.650Z,3.50
2023-04-09T02:16:43.310Z,4.50
2023-04-09T02:19:12.228Z,4.70
2023-04-09T02:21:41.441Z,3.60
2023-04-09T02:24:10.852Z,5.00
2023-04-09T02:26:39.903Z,4.00
2023-04-09T02:29:08.474Z,3.40
2023-04-09T02:31:37.407Z,4.90
2023-04-09T02:34:06.357Z,3.60
2023-04-09T02:36:35.157Z,3.50
2023-04-09T02:39:04.482Z,4.20
2023-04-09T02:41:33.850Z,3.40
2023-04-09T02:44:03.420Z,3.70
2023-04-09T02:46:32.849Z,3.30
2023-04-09T02:49:02.318Z,3.40
2023-04-09T02:51:31.860Z,3.70
2023-04-09T02:54:00.870Z,4.00
2023-04-09T02:56:30.710Z,3.50
2023-04-09T02:58:59.794Z,3.30
2023-04-09T03:01:29.471Z,3.40
2023-04-09T03:03:59.075Z,3.60
2023-04-09T03:06:28.132Z,3.50
2023-04-09T03:08:57.483Z,3.30
2023-04-09T03:11:26.628Z,3.10
2023-04-09T03:13:55.925Z,3.80
2023-04-09T03:16:27.900Z,4.20
2023-04-09T03:18:57.866Z,4.30
2023-04-09T03:21:27.770Z,3.40
2023-04-09T03:23:56.986Z,3.60
2023-04-09T03:26:25.923Z,3.40
2023-04-09T03:28:55.182Z,3.20
2023-04-09T03:31:24.648Z,3.10
2023-04-09T03:33:53.708Z,3.60
2023-04-09T03:36:23.031Z,3.20
2023-04-09T03:38:52.056Z,3.30
2023-04-09T03:41:20.879Z,3.50
2023-04-09T03:43:49.708Z,3.10
2023-04-09T03:46:19.363Z,2.90
2023-04-09T03:48:48.465Z,2.90
2023-04-09T03:51:18.370Z,3.00
2023-04-09T03:53:47.223Z,4.10
2023-04-09T03:56:16.488Z,2.90
2023-04-09T03:58:45.474Z,3.40
2023-04-09T04:01:14.244Z,3.10
2023-04-09T04:03:43.369Z,3.20
2023-04-09T04:06:12.078Z,3.00
2023-04-09T04:08:41.856Z,3.30
2023-04-09T04:11:11.459Z,3.90
2023-04-09T04:13:40.402Z,3.40
2023-04-09T04:16:10.403Z,4.00
2023-04-09T04:18:39.368Z,4.20
2023-04-09T04:21:14.109Z,4.20
2023-04-09T04:23:43.049Z,4.80
2023-04-09T04:26:12.676Z,3.90
2023-04-09T04:28:41.580Z,4.10
2023-04-09T04:31:12.289Z,3.90
2023-04-09T04:33:42.499Z,3.90
2023-04-09T04:36:14.782Z,3.20
2023-04-09T04:38:43.701Z,3.70
2023-04-09T04:41:12.629Z,4.00
2023-04-09T04:43:41.818Z,4.30
2023-04-09T04:46:10.981Z,3.60
2023-04-09T04:48:39.717Z,3.60
2023-04-09T04:51:08.568Z,4.20
2023-04-09T04:53:37.593Z,3.70
2023-04-09T04:56:06.592Z,4.20
2023-04-09T04:58:35.185Z,4.00
2023-04-09T05:01:03.954Z,4.10
2023-04-09T05:03:32.933Z,3.60
2023-04-09T05:06:01.818Z,5.30
2023-04-09T05:08:31.005Z,3.50
2023-04-09T05:11:00.568Z,3.60
2023-04-09T05:13:29.653Z,4.10
2023-04-09T05:15:58.698Z,3.80
2023-04-09T05:18:27.636Z,3.60
2023-04-09T05:20:57.305Z,3.20
2023-04-09T05:23:26.157Z,3.50
2023-04-09T05:25:54.972Z,3.70
2023-04-09T05:28:24.025Z,3.60
2023-04-09T05:30:53.883Z,4.60
2023-04-09T05:33:23.072Z,3.40
2023-04-09T05:35:52.500Z,3.20
2023-04-09T05:38:23.026Z,3.10
2023-04-09T05:40:52.491Z,3.80
2023-04-09T05:43:21.446Z,3.70
2023-04-09T05:45:53.062Z,3.40
2023-04-09T05:48:23.861Z,3.30
2023-04-09T05:50:55.853Z,3.60
2023-04-09T05:53:26.235Z,3.70
2023-04-09T05:55:56.187Z,3.60
2023-04-09T05:58:25.592Z,3.60
2023-04-09T06:00:55.426Z,3.70
2023-04-09T06:03:24.378Z,3.60
2023-04-09T06:05:53.679Z,3.70
2023-04-09T06:08:22.725Z,3.60
2023-04-09T06:10:51.501Z,3.30
2023-04-09T06:13:20.187Z,3.20
2023-04-09T06:15:49.225Z,3.10
2023-04-09T06:18:18.696Z,2.90
2023-04-09T06:20:47.316Z,3.30
2023-04-09T06:23:16.318Z,3.20
2023-04-09T06:25:45.146Z,3.10
2023-04-09T06:28:14.107Z,3.30
2023-04-09T06:30:43.118Z,3.20
2023-04-09T06:33:12.548Z,4.80
2023-04-09T06:35:42.843Z,3.20
2023-04-09T06:38:12.194Z,3.30
2023-04-09T06:40:41.916Z,4.00
2023-04-09T06:43:12.270Z,3.40
2023-04-09T06:45:42.016Z,3.50
2023-04-09T06:48:12.518Z,4.50
2023-04-09T06:50:43.419Z,3.20
2023-04-09T06:53:13.407Z,3.20
2023-04-09T06:55:44.542Z,3.10
2023-04-09T06:58:18.177Z,3.00
2023-04-09T07:00:47.380Z,3.20
2023-04-09T07:03:16.889Z,2.60
2023-04-09T07:05:46.645Z,2.80
2023-04-09T07:08:16.589Z,4.90
2023-04-09T07:10:47.954Z,3.20
2023-04-09T07:13:17.399Z,3.30
2023-04-09T07:15:47.598Z,3.00
2023-04-09T07:18:17.282Z,3.20
2023-04-09T07:20:46.294Z,2.90
2023-04-09T07:23:15.305Z,3.30
2023-04-09T07:25:45.002Z,3.30
2023-04-09T07:28:14.961Z,3.00
2023-04-09T07:30:44.392Z,3.30
2023-04-09T07:33:14.887Z,3.90
2023-04-09T07:35:44.452Z,3.00
2023-04-09T07:38:14.474Z,3.40
2023-04-09T07:40:43.747Z,3.50
2023-04-09T07:43:12.783Z,3.10
2023-04-09T07:45:43.423Z,3.30
2023-04-09T07:48:13.378Z,3.00
2023-04-09T07:50:43.020Z,3.30
2023-04-09T07:53:13.201Z,2.80
2023-04-09T07:55:42.080Z,3.40
2023-04-09T07:58:11.652Z,2.40
2023-04-09T08:00:40.610Z,2.10
2023-04-09T08:03:11.487Z,2.70
2023-04-09T08:05:41.630Z,2.30
2023-04-09T08:08:10.725Z,2.40
2023-04-09T08:10:39.719Z,2.20
2023-04-09T08:13:10.193Z,1.90
2023-04-09T08:15:41.911Z,1.90
2023-04-09T08:18:11.219Z,1.90
2023-04-09T08:20:45.803Z,1.60
2023-04-09T08:23:15.441Z,1.90
2023-04-09T08:25:44.711Z,1.80
2023-04-09T08:28:14.114Z,2.10
2023-04-09T08:30:46.206Z,1.70
2023-04-09T08:33:18.619Z,2.00
2023-04-09T08:35:48.396Z,2.00
2023-04-09T08:38:19.534Z,1.80
2023-04-09T08:40:49.117Z,2.00
2023-04-09T08:43:25.011Z,1.90
2023-04-09T08:45:59.020Z,2.00
2023-04-09T08:48:28.807Z,2.40
2023-04-09T08:50:58.274Z,2.30
2023-04-09T08:53:28.412Z,2.10
2023-04-09T08:55:58.214Z,1.90
2023-04-09T08:58:28.625Z,2.20
2023-04-09T09:00:57.867Z,2.30
2023-04-09T09:03:27.625Z,2.30
2023-04-09T09:05:56.686Z,2.10
2023-04-09T09:08:27.445Z,2.40
2023-04-09T09:10:56.870Z,2.00
2023-04-09T09:13:28.673Z,2.00
2023-04-09T09:16:24.602Z,2.70
2023-04-09T09:18:54.670Z,2.70
2023-04-09T09:21:25.011Z,2.40
2023-04-09T09:23:55.871Z,2.20
2023-04-09T09:26:30.617Z,2.30
2023-04-09T09:29:07.536Z,3.00
2023-04-09T09:31:50.091Z,2.30
2023-04-09T09:34:22.200Z,2.30
2023-04-09T09:36:51.982Z,2.50
2023-04-09T09:39:23.481Z,2.10
2023-04-09T09:42:08.749Z,2.10
2023-04-09T09:44:39.584Z,2.20
2023-04-09T09:47:10.134Z,2.10
2023-04-09T09:49:39.516Z,2.00
2023-04-09T09:52:11.497Z,2.00
2023-04-09T09:54:46.958Z,2.30
2023-04-09T09:57:20.937Z,2.20
2023-04-09T10:00:17.722Z,2.30
2023-04-09T10:02:57.692Z,2.00
2023-04-09T10:05:28.397Z,2.10
2023-04-09T10:07:58.835Z,2.30
2023-04-09T10:10:28.436Z,2.30
2023-04-09T10:12:58.125Z,2.00
2023-04-09T10:15:30.279Z,2.30
2023-04-09T10:18:00.340Z,2.50
2023-04-09T10:21:00.188Z,2.10
2023-04-09T10:23:38.443Z,2.40
2023-04-09T10:26:07.954Z,3.20
2023-04-09T10:28:40.688Z,2.30
2023-04-09T10:31:09.650Z,2.80
2023-04-09T10:33:39.556Z,3.50
2023-04-09T10:36:15.299Z,2.20
2023-04-09T10:38:47.451Z,2.20
2023-04-09T10:41:23.203Z,2.20
2023-04-09T10:43:51.930Z,2.40
2023-04-09T10:46:37.691Z,2.30
2023-04-09T10:49:19.998Z,2.10
2023-04-09T10:51:51.537Z,5.10
2023-04-09T10:54:37.935Z,1.90
2023-04-09T10:57:09.728Z,3.00
2023-04-09T10:59:41.682Z,2.00
2023-04-09T11:02:26.414Z,2.30
2023-04-09T11:05:11.730Z,2.20
2023-04-09T11:07:45.385Z,2.30
2023-04-09T11:10:14.759Z,2.10
2023-04-09T11:12:44.166Z,2.30
2023-04-09T11:15:18.616Z,2.80
2023-04-09T11:17:49.384Z,3.00
2023-04-09T11:20:22.328Z,2.40
2023-04-09T11:22:53.899Z,2.30
2023-04-09T11:25:28.634Z,1.80
2023-04-09T11:27:58.581Z,2.00
2023-04-09T11:30:28.591Z,2.70
2023-04-09T11:32:58.488Z,2.00
2023-04-09T11:35:29.120Z,2.10
2023-04-09T11:38:00.117Z,2.10
2023-04-09T11:40:30.824Z,2.80
2023-04-09T11:43:01.959Z,2.20
2023-04-09T11:45:34.259Z,2.00
2023-04-09T11:48:06.267Z,2.00
2023-04-09T11:50:38.932Z,2.00
2023-04-09T11:53:23.115Z,2.00
2023-04-09T11:55:54.570Z,2.10
2023-04-09T11:58:26.629Z,2.30
2023-04-09T12:01:02.557Z,2.30
2023-04-09T12:03:33.814Z,2.60
2023-04-09T12:06:04.924Z,2.20
2023-04-09T12:08:38.137Z,2.10
2023-04-09T12:11:13.625Z,2.40
2023-04-09T12:13:46.870Z,2.20
2023-04-09T12:16:21.952Z,2.70
2023-04-09T12:18:56.552Z,2.50
2023-04-09T12:21:27.923Z,2.40
2023-04-09T12:24:00.040Z,2.20
2023-04-09T12:26:31.098Z,2.20
2023-04-09T12:29:02.204Z,2.20
2023-04-09T12:31:31.738Z,2.30
2023-04-09T12:34:01.829Z,2.30
2023-04-09T12:36:33.497Z,2.50
2023-04-09T12:39:04.051Z,3.10
2023-04-09T12:41:35.614Z,2.50
2023-04-09T12:44:06.949Z,2.70
2023-04-09T12:46:36.661Z,2.80
2023-04-09T12:49:06.773Z,2.30
2023-04-09T12:51:38.385Z,2.40
2023-04-09T12:54:09.724Z,2.60
2023-04-09T12:56:41.607Z,2.00
2023-04-09T12:59:11.516Z,1.90
2023-04-09T13:01:43.666Z,2.10
2023-04-09T13:04:16.081Z,1.90
2023-04-09T13:06:51.561Z,1.80
2023-04-09T13:09:25.125Z,1.80
2023-04-09T13:11:57.212Z,1.70
2023-04-09T13:14:30.141Z,2.00
2023-04-09T13:17:03.031Z,1.30
2023-04-09T13:19:33.213Z,1.10
2023-04-09T13:22:03.347Z,1.10
2023-04-09T13:24:33.092Z,1.30
2023-04-09T13:27:04.997Z,1.20
2023-04-09T13:29:34.810Z,1.00
2023-04-09T13:32:07.721Z,0.80
2023-04-09T13:34:39.832Z,0.90
2023-04-09T13:37:11.284Z,1.40
2023-04-09T13:39:41.869Z,1.80
2023-04-09T13:42:14.365Z,1.70
2023-04-09T13:44:48.351Z,1.60
2023-04-09T13:47:19.100Z,1.70
2023-04-09T13:49:48.815Z,1.90
2023-04-09T13:52:17.871Z,1.40
2023-04-09T13:54:47.933Z,1.50
2023-04-09T13:57:19.203Z,1.60
2023-04-09T13:59:50.320Z,2.40
2023-04-09T14:02:20.884Z,2.10
2023-04-09T14:04:52.162Z,1.60
2023-04-09T14:07:22.631Z,1.60
2023-04-09T14:09:52.818Z,3.00
2023-04-09T14:12:22.865Z,1.60
2023-04-09T14:14:52.732Z,1.50
2023-04-09T14:17:22.393Z,1.30
2023-04-09T14:19:51.681Z,2.10
2023-04-09T14:22:21.022Z,1.20
2023-04-09T14:24:50.762Z,1.90
2023-04-09T14:27:20.864Z,2.20
2023-04-09T14:29:52.244Z,2.20
2023-04-09T14:32:21.676Z,1.80
2023-04-09T14:34:52.075Z,1.40
2023-04-09T14:37:21.263Z,1.70
2023-04-09T14:39:51.111Z,1.80
2023-04-09T14:42:20.974Z,3.30
2023-04-09T14:44:50.541Z,1.70
2023-04-09T14:47:19.772Z,1.50
2023-04-09T14:49:49.530Z,1.70
2023-04-09T14:52:19.308Z,1.90
2023-04-09T14:54:48.854Z,2.70
2023-04-09T14:57:18.449Z,2.70
2023-04-09T14:59:47.736Z,2.30
2023-04-09T15:02:17.954Z,1.70
2023-04-09T15:04:47.920Z,2.00
2023-04-09T15:07:17.547Z,3.10
2023-04-09T15:09:47.313Z,2.40
2023-04-09T15:12:17.110Z,1.90
2023-04-09T15:14:47.355Z,2.40
2023-04-09T15:17:19.121Z,1.50
2023-04-09T15:19:49.753Z,1.60
2023-04-09T15:22:22.663Z,1.70
2023-04-09T15:24:52.789Z,1.60
2023-04-09T15:27:22.155Z,1.40
2023-04-09T15:29:52.232Z,2.70
2023-04-09T15:32:22.744Z,2.20
2023-04-09T15:34:53.429Z,2.40
2023-04-09T15:37:24.306Z,1.80
2023-04-09T15:39:54.852Z,2.20
2023-04-09T15:42:23.924Z,2.80
2023-04-09T15:44:53.677Z,2.30
2023-04-09T15:47:23.319Z,2.20
2023-04-09T15:49:53.367Z,2.60
2023-04-09T15:52:23.459Z,2.10
2023-04-09T15:54:53.007Z,1.50
2023-04-09T15:57:22.477Z,1.30
2023-04-09T15:59:52.212Z,1.70
2023-04-09T16:02:24.071Z,2.40
2023-04-09T16:04:55.768Z,2.40
2023-04-09T16:07:25.925Z,1.40
2023-04-09T16:09:55.677Z,1.30
2023-04-09T16:12:26.620Z,1.60
2023-04-09T16:14:56.489Z,2.00
2023-04-09T16:17:25.528Z,1.40
2023-04-09T16:19:56.394Z,2.20
2023-04-09T16:22:25.747Z,1.50
2023-04-09T16:24:54.797Z,1.40
2023-04-09T16:27:24.463Z,1.70
2023-04-09T16:29:53.339Z,2.50
2023-04-09T16:32:22.396Z,1.80
2023-04-09T16:34:51.785Z,1.60
2023-04-09T16:37:21.551Z,1.70
2023-04-09T16:39:51.728Z,1.40
2023-04-09T16:42:22.484Z,2.00
2023-04-09T16:44:51.701Z,1.50
2023-04-09T16:47:22.356Z,1.70
2023-04-09T16:49:52.308Z,1.20
2023-04-09T16:52:22.502Z,2.00
2023-04-09T16:54:51.972Z,2.30
2023-04-09T16:57:21.732Z,2.30
2023-04-09T16:59:51.224Z,2.20
2023-04-09T17:02:22.601Z,3.10
2023-04-09T17:04:52.361Z,3.00
2023-04-09T17:07:22.287Z,3.90
2023-04-09T17:09:52.156Z,5.30
2023-04-09T17:12:22.160Z,3.70
2023-04-09T17:14:52.489Z,2.40
2023-04-09T17:17:22.940Z,2.80
2023-04-09T17:19:54.236Z,5.40
2023-04-09T17:22:26.629Z,3.70
2023-04-09T17:24:57.086Z,2.70
2023-04-09T17:27:28.547Z,2.90
2023-04-09T17:29:58.785Z,3.30
2023-04-09T17:32:28.596Z,3.90
2023-04-09T17:35:00.390Z,5.10
2023-04-09T17:37:29.999Z,4.60
2023-04-09T17:39:59.414Z,5.80
2023-04-09T17:42:29.383Z,8.30
2023-04-09T17:44:58.384Z,9.30
2023-04-09T17:47:28.132Z,7.20
2023-04-09T17:49:57.662Z,7.60
2023-04-09T17:52:27.408Z,12.80
2023-04-09T17:54:58.225Z,9.90
2023-04-09T17:57:28.937Z,6.70
2023-04-09T17:59:59.029Z,7.80
2023-04-09T18:02:28.897Z,13.80
2023-04-09T18:05:04.493Z,9.60
2023-04-09T18:07:35.726Z,6.80
2023-04-09T18:10:08.420Z,5.60
2023-04-09T18:12:38.894Z,6.30
2023-04-09T18:15:08.805Z,9.80
2023-04-09T18:17:39.374Z,7.50
2023-04-09T18:20:08.945Z,5.50
2023-04-09T18:22:38.717Z,4.20
2023-04-09T18:25:08.684Z,3.50
2023-04-09T18:27:38.632Z,3.70
2023-04-09T18:30:11.629Z,3.00
2023-04-09T18:32:40.758Z,4.60
2023-04-09T18:35:10.503Z,5.00
2023-04-09T18:37:39.272Z,5.90
2023-04-09T18:40:12.656Z,5.00
2023-04-09T18:42:41.933Z,4.70
2023-04-09T18:45:12.123Z,4.10
2023-04-09T18:47:41.203Z,3.10
2023-04-09T18:50:11.782Z,2.70
2023-04-09T18:52:41.291Z,2.70
2023-04-09T18:55:12.407Z,6.30
2023-04-09T18:57:44.589Z,26.80
2023-04-09T19:00:13.689Z,15.30
2023-04-09T19:02:43.712Z,17.60
2023-04-09T19:05:13.526Z,5.10
2023-04-09T19:07:43.954Z,3.70
2023-04-09T19:10:14.212Z,4.20
2023-04-09T19:12:51.097Z,6.10
2023-04-09T19:15:26.485Z,2.50
2023-04-09T19:17:57.248Z,2.10
2023-04-09T19:20:26.669Z,2.30
2023-04-09T19:22:57.195Z,2.90
2023-04-09T19:25:26.499Z,5.90
2023-04-09T19:27:56.901Z,7.50
2023-04-09T19:30:27.113Z,6.00
2023-04-09T19:32:56.634Z,4.20
2023-04-09T19:35:25.608Z,3.80
2023-04-09T19:37:54.645Z,2.70
2023-04-09T19:40:23.424Z,2.90
2023-04-09T19:42:52.716Z,2.80
2023-04-09T19:45:22.630Z,4.40
2023-04-09T19:47:52.482Z,3.80
2023-04-09T19:50:22.373Z,2.50
2023-04-09T19:52:51.307Z,3.10
2023-04-09T19:55:20.781Z,2.80
2023-04-09T19:57:49.984Z,3.10
2023-04-09T20:00:19.554Z,2.60
2023-04-09T20:02:49.882Z,3.30
2023-04-09T20:05:22.308Z,3.10
2023-04-09T20:07:55.343Z,3.20
2023-04-09T20:10:25.103Z,4.20
2023-04-09T20:12:55.079Z,5.20
2023-04-09T20:15:25.902Z,4.00
2023-04-09T20:17:56.187Z,3.80
2023-04-09T20:20:26.012Z,5.40
2023-04-09T20:22:56.944Z,5.00
2023-04-09T20:25:26.968Z,5.00
2023-04-09T20:27:56.604Z,4.30
2023-04-09T20:30:28.293Z,3.80
2023-04-09T20:32:59.328Z,3.40
2023-04-09T20:35:29.607Z,3.20
2023-04-09T20:38:00.253Z,4.30
2023-04-09T20:40:31.859Z,3.20
2023-04-09T20:43:01.866Z,2.80
2023-04-09T20:45:31.838Z,3.50
2023-04-09T20:48:03.543Z,2.40
2023-04-09T20:50:34.189Z,2.50
2023-04-09T20:53:04.869Z,3.10
2023-04-09T20:55:36.665Z,3.00
2023-04-09T20:58:08.640Z,2.30
2023-04-09T21:00:38.295Z,2.30
2023-04-09T21:03:08.050Z,2.30
2023-04-09T21:05:37.625Z,2.30
2023-04-09T21:08:07.629Z,2.00
2023-04-09T21:10:37.420Z,2.20
2023-04-09T21:13:06.961Z,2.30
2023-04-09T21:15:38.398Z,2.10
2023-04-09T21:18:08.810Z,1.70
2023-04-09T21:20:46.123Z,2.40
2023-04-09T21:23:17.931Z,3.20
2023-04-09T21:25:47.176Z,3.20
2023-04-09T21:28:17.732Z,3.20
2023-04-09T21:30:47.608Z,2.90
2023-04-09T21:33:17.059Z,3.70
2023-04-09T21:35:46.753Z,3.40
2023-04-09T21:38:17.543Z,3.00
2023-04-09T21:40:47.920Z,3.90
2023-04-09T21:43:17.484Z,3.00
2023-04-09T21:45:47.993Z,3.10
2023-04-09T21:48:17.786Z,2.60
2023-04-09T21:50:47.599Z,2.20
2023-04-09T21:53:17.400Z,3.80
2023-04-09T21:55:47.803Z,3.60
2023-04-09T21:58:17.965Z,2.90
2023-04-09T22:00:47.773Z,2.60
2023-04-09T22:03:17.122Z,2.00
2023-04-09T22:05:46.186Z,1.60
2023-04-09T22:08:15.769Z,2.50
2023-04-09T22:10:45.233Z,3.40
2023-04-09T22:13:14.085Z,3.00
2023-04-09T22:15:43.247Z,2.70
2023-04-09T22:18:12.211Z,2.30
2023-04-09T22:20:41.657Z,1.80
2023-04-09T22:23:12.064Z,2.70
2023-04-09T22:25:41.684Z,3.40
2023-04-09T22:28:10.640Z,3.80
2023-04-09T22:30:39.509Z,3.20
2023-04-09T22:33:09.748Z,2.70
2023-04-09T22:35:39.212Z,2.90
2023-04-09T22:38:08.867Z,3.50
2023-04-09T22:40:38.237Z,3.20
2023-04-09T22:43:07.900Z,2.90
2023-04-09T22:45:38.433Z,2.80
2023-04-09T22:48:09.867Z,2.80
2023-04-09T22:50:38.965Z,2.60
2023-04-09T22:53:08.527Z,2.50
2023-04-09T22:55:38.717Z,2.40
2023-04-09T22:58:08.149Z,2.40
2023-04-09T23:00:37.827Z,1.80
2023-04-09T23:03:07.443Z,1.50
2023-04-09T23:05:37.186Z,1.50
2023-04-09T23:08:07.281Z,1.50
2023-04-09T23:10:37.336Z,2.00
2023-04-09T23:13:06.874Z,2.00
2023-04-09T23:15:36.170Z,1.80
2023-04-09T23:18:05.602Z,2.30
2023-04-09T23:20:36.283Z,2.50
2023-04-09T23:23:05.154Z,2.50
2023-04-09T23:25:34.911Z,3.40
2023-04-09T23:28:05.056Z,2.40
2023-04-09T23:30:34.262Z,4.10
2023-04-09T23:33:03.833Z,3.20
2023-04-09T23:35:32.596Z,2.50
2023-04-09T23:38:01.644Z,2.70
2023-04-09T23:40:30.683Z,3.20
2023-04-09T23:42:59.787Z,3.40
2023-04-09T23:45:29.248Z,3.20
2023-04-09T23:47:59.385Z,2.70
2023-04-09T23:50:29.348Z,2.70
2023-04-09T23:53:01.526Z,2.60
2023-04-09T23:55:30.720Z,2.50
2023-04-09T23:58:00.307Z,2.30
